createdAt,value
2019-02-06T00:00:49.467Z,0.00
2019-02-06T00:01:49.455Z,0.00
2019-02-06T00:02:49.444Z,0.00
2019-02-06T00:03:49.433Z,0.00
2019-02-06T00:04:49.441Z,0.00
2019-02-06T00:05:49.415Z,0.00
2019-02-06T00:06:49.401Z,0.00
2019-02-06T00:07:49.390Z,0.00
2019-02-06T00:08:49.380Z,0.00
2019-02-06T00:09:49.380Z,0.00
2019-02-06T00:10:49.359Z,0.00
2019-02-06T00:11:49.352Z,0.00
2019-02-06T00:12:49.385Z,0.00
2019-02-06T00:13:49.327Z,0.00
2019-02-06T00:14:49.328Z,0.00
2019-02-06T00:15:49.334Z,0.00
2019-02-06T00:16:49.295Z,0.00
2019-02-06T00:17:49.301Z,0.00
2019-02-06T00:18:49.309Z,0.00
2019-02-06T00:19:49.277Z,0.00
2019-02-06T00:20:49.254Z,0.00
2019-02-06T00:21:49.242Z,0.00
2019-02-06T00:22:49.232Z,0.00
2019-02-06T00:23:49.220Z,0.00
2019-02-06T00:24:49.221Z,0.00
2019-02-06T00:25:49.198Z,0.00
2019-02-06T00:26:49.187Z,0.00
2019-02-06T00:27:49.176Z,0.00
2019-02-06T00:28:49.167Z,0.00
2019-02-06T00:29:49.192Z,0.00
2019-02-06T00:30:49.148Z,0.00
2019-02-06T00:31:49.134Z,0.00
2019-02-06T00:32:49.124Z,0.00
2019-02-06T00:33:49.115Z,0.00
2019-02-06T00:34:49.140Z,0.00
2019-02-06T00:35:49.093Z,0.00
2019-02-06T00:36:49.083Z,0.00
2019-02-06T00:37:49.073Z,0.00
2019-02-06T00:38:49.060Z,0.00
2019-02-06T00:39:49.049Z,0.00
2019-02-06T00:40:49.052Z,0.00
2019-02-06T00:41:49.030Z,0.00
2019-02-06T00:42:49.020Z,0.00
2019-02-06T00:43:49.008Z,0.00
2019-02-06T00:44:48.998Z,0.00
2019-02-06T00:45:48.997Z,0.00
2019-02-06T00:46:48.979Z,0.00
2019-02-06T00:47:48.969Z,0.00
2019-02-06T00:48:48.959Z,0.00
2019-02-06T00:49:48.945Z,0.00
2019-02-06T00:50:48.946Z,0.00
2019-02-06T00:51:48.933Z,0.00
2019-02-06T00:52:48.914Z,0.00
2019-02-06T00:53:48.905Z,0.00
2019-02-06T00:54:48.891Z,0.00
2019-02-06T00:55:48.890Z,0.00
2019-02-06T00:56:48.869Z,0.00
2019-02-06T00:57:48.864Z,0.00
2019-02-06T00:58:48.847Z,0.00
2019-02-06T00:59:48.837Z,0.00
2019-02-06T01:00:48.836Z,0.00
2019-02-06T01:01:48.816Z,0.00
2019-02-06T01:02:48.805Z,0.00
2019-02-06T01:03:48.794Z,0.00
2019-02-06T01:04:48.787Z,0.00
2019-02-06T01:05:48.785Z,0.00
2019-02-06T01:06:48.767Z,0.00
2019-02-06T01:07:48.751Z,0.00
2019-02-06T01:08:48.741Z,0.00
2019-02-06T01:09:48.732Z,0.00
2019-02-06T01:10:48.731Z,0.00
2019-02-06T01:11:48.709Z,0.00
2019-02-06T01:12:48.700Z,0.00
2019-02-06T01:13:48.687Z,0.00
2019-02-06T01:14:48.677Z,0.00
2019-02-06T01:15:48.679Z,0.00
2019-02-06T01:16:48.655Z,0.00
2019-02-06T01:17:48.644Z,0.00
2019-02-06T01:18:48.633Z,0.00
2019-02-06T01:19:48.623Z,0.00
2019-02-06T01:20:48.624Z,0.00
2019-02-06T01:21:48.712Z,0.00
2019-02-06T01:22:48.590Z,0.00
2019-02-06T01:23:48.580Z,0.00
2019-02-06T01:24:48.571Z,0.00
2019-02-06T01:25:48.569Z,0.00
2019-02-06T01:26:48.588Z,0.00
2019-02-06T01:27:48.541Z,0.00
2019-02-06T01:28:48.527Z,0.00
2019-02-06T01:29:48.517Z,0.00
2019-02-06T01:30:48.515Z,0.00
2019-02-06T01:31:48.494Z,0.00
2019-02-06T01:32:48.484Z,0.00
2019-02-06T01:33:48.473Z,0.00
2019-02-06T01:34:48.464Z,0.00
2019-02-06T01:35:50.174Z,0.00
2019-02-06T01:36:48.441Z,0.00
2019-02-06T01:37:48.430Z,0.00
2019-02-06T01:38:48.422Z,0.00
2019-02-06T01:39:48.434Z,0.00
2019-02-06T01:40:48.413Z,0.00
2019-02-06T01:41:48.392Z,0.00
2019-02-06T01:42:48.378Z,0.00
2019-02-06T01:43:48.371Z,0.00
2019-02-06T01:44:48.357Z,0.00
2019-02-06T01:45:48.358Z,0.00
2019-02-06T01:46:48.336Z,0.00
2019-02-06T01:47:48.326Z,0.00
2019-02-06T01:48:48.313Z,0.00
2019-02-06T01:49:48.304Z,0.00
2019-02-06T01:50:48.372Z,0.00
2019-02-06T01:51:48.282Z,0.00
2019-02-06T01:52:48.273Z,0.00
2019-02-06T01:53:48.260Z,0.00
2019-02-06T01:54:48.252Z,0.00
2019-02-06T01:55:48.253Z,0.00
2019-02-06T01:56:48.230Z,0.00
2019-02-06T01:57:48.223Z,0.00
2019-02-06T01:58:48.206Z,0.00
2019-02-06T01:59:48.196Z,0.00
2019-02-06T02:00:48.197Z,0.00
2019-02-06T02:01:48.177Z,0.00
2019-02-06T02:02:48.164Z,0.00
2019-02-06T02:03:48.157Z,0.00
2019-02-06T02:04:48.145Z,0.00
2019-02-06T02:05:48.144Z,0.00
2019-02-06T02:06:48.128Z,0.00
2019-02-06T02:07:48.111Z,0.00
2019-02-06T02:08:48.100Z,0.00
2019-02-06T02:09:48.092Z,0.00
2019-02-06T02:10:48.090Z,0.00
2019-02-06T02:11:48.068Z,0.00
2019-02-06T02:12:48.056Z,0.00
2019-02-06T02:13:48.048Z,0.00
2019-02-06T02:14:48.037Z,0.00
2019-02-06T02:15:48.035Z,0.00
2019-02-06T02:16:48.014Z,0.00
2019-02-06T02:17:48.003Z,0.00
2019-02-06T02:18:47.994Z,0.00
2019-02-06T02:19:47.984Z,0.00
2019-02-06T02:20:47.985Z,0.00
2019-02-06T02:21:47.960Z,0.00
2019-02-06T02:22:47.950Z,0.00
2019-02-06T02:23:47.940Z,0.00
2019-02-06T02:24:47.929Z,0.00
2019-02-06T02:25:47.931Z,0.00
2019-02-06T02:26:47.909Z,0.00
2019-02-06T02:27:47.895Z,0.00
2019-02-06T02:28:47.885Z,0.00
2019-02-06T02:29:47.877Z,0.00
2019-02-06T02:30:47.877Z,0.00
2019-02-06T02:31:47.856Z,0.00
2019-02-06T02:32:47.842Z,0.00
2019-02-06T02:33:47.858Z,0.00
2019-02-06T02:34:47.822Z,0.00
2019-02-06T02:35:47.827Z,0.00
2019-02-06T02:36:47.810Z,0.00
2019-02-06T02:37:47.791Z,0.00
2019-02-06T02:38:47.779Z,0.00
2019-02-06T02:39:47.769Z,0.00
2019-02-06T02:40:47.770Z,0.00
2019-02-06T02:41:47.765Z,0.00
2019-02-06T02:42:47.738Z,0.00
2019-02-06T02:43:47.727Z,0.00
2019-02-06T02:44:47.716Z,0.00
2019-02-06T02:45:47.718Z,0.00
2019-02-06T02:46:47.697Z,0.00
2019-02-06T02:47:47.698Z,0.00
2019-02-06T02:48:47.675Z,0.00
2019-02-06T02:49:47.666Z,0.00
2019-02-06T02:50:47.680Z,0.00
2019-02-06T02:51:47.643Z,0.00
2019-02-06T02:52:47.637Z,0.00
2019-02-06T02:53:47.622Z,0.00
2019-02-06T02:54:47.614Z,0.00
2019-02-06T02:55:47.602Z,0.00
2019-02-06T02:56:47.628Z,0.00
2019-02-06T02:57:47.580Z,0.00
2019-02-06T02:58:47.574Z,0.00
2019-02-06T02:59:47.560Z,0.00
2019-02-06T03:00:47.550Z,0.00
2019-02-06T03:01:47.550Z,0.00
2019-02-06T03:02:47.527Z,0.00
2019-02-06T03:03:47.515Z,0.00
2019-02-06T03:04:47.505Z,0.00
2019-02-06T03:05:47.493Z,0.00
2019-02-06T03:06:47.495Z,0.00
2019-02-06T03:07:47.473Z,0.00
2019-02-06T03:08:47.465Z,0.00
2019-02-06T03:09:47.466Z,0.00
2019-02-06T03:10:47.440Z,0.00
2019-02-06T03:11:47.443Z,0.00
2019-02-06T03:12:47.421Z,0.00
2019-02-06T03:13:47.408Z,0.00
2019-02-06T03:14:47.404Z,0.00
2019-02-06T03:15:47.391Z,0.00
2019-02-06T03:16:47.387Z,0.00
2019-02-06T03:17:47.366Z,0.00
2019-02-06T03:18:47.364Z,0.00
2019-02-06T03:19:47.345Z,0.00
2019-02-06T03:20:47.339Z,0.00
2019-02-06T03:21:47.336Z,0.00
2019-02-06T03:22:47.311Z,0.00
2019-02-06T03:23:47.304Z,0.00
2019-02-06T03:24:47.296Z,0.00
2019-02-06T03:25:47.279Z,0.00
2019-02-06T03:26:47.280Z,0.00
2019-02-06T03:27:47.262Z,0.00
2019-02-06T03:28:47.248Z,0.00
2019-02-06T03:29:47.237Z,0.00
2019-02-06T03:30:47.228Z,0.00
2019-02-06T03:31:47.228Z,0.00
2019-02-06T03:32:47.209Z,0.00
2019-02-06T03:33:47.196Z,0.00
2019-02-06T03:34:47.185Z,0.00
2019-02-06T03:35:47.174Z,0.00
2019-02-06T03:36:47.175Z,0.00
2019-02-06T03:37:47.152Z,0.00
2019-02-06T03:38:47.150Z,0.00
2019-02-06T03:39:47.133Z,0.00
2019-02-06T03:40:47.119Z,0.00
2019-02-06T03:41:47.150Z,0.00
2019-02-06T03:42:47.098Z,0.00
2019-02-06T03:43:47.089Z,0.00
2019-02-06T03:44:47.086Z,0.00
2019-02-06T03:45:47.067Z,0.00
2019-02-06T03:46:47.075Z,0.00
2019-02-06T03:47:47.058Z,0.00
2019-02-06T03:48:47.035Z,0.00
2019-02-06T03:49:47.031Z,0.00
2019-02-06T03:50:47.015Z,0.00
2019-02-06T03:51:47.006Z,0.00
2019-02-06T03:52:47.011Z,0.00
2019-02-06T03:53:46.982Z,0.00
2019-02-06T03:54:46.974Z,0.00
2019-02-06T03:55:46.963Z,0.00
2019-02-06T03:56:46.953Z,0.00
2019-02-06T03:57:46.956Z,0.00
2019-02-06T03:58:46.929Z,0.00
2019-02-06T03:59:46.919Z,0.00
2019-02-06T04:00:46.907Z,0.00
2019-02-06T04:01:46.897Z,0.00
2019-02-06T04:02:46.897Z,0.00
2019-02-06T04:03:46.878Z,0.00
2019-02-06T04:04:46.864Z,0.00
2019-02-06T04:05:46.853Z,0.00
2019-02-06T04:06:54.982Z,0.00
2019-02-06T04:07:47.841Z,0.00
2019-02-06T04:08:46.824Z,0.00
2019-02-06T04:09:46.811Z,0.00
2019-02-06T04:10:46.804Z,0.00
2019-02-06T04:11:46.797Z,0.00
2019-02-06T04:12:46.792Z,0.00
2019-02-06T04:13:46.770Z,0.00
2019-02-06T04:14:46.757Z,0.00
2019-02-06T04:15:46.751Z,0.00
2019-02-06T04:16:46.736Z,0.00
2019-02-06T04:17:46.735Z,0.00
2019-02-06T04:18:46.716Z,0.00
2019-02-06T04:19:46.705Z,0.00
2019-02-06T04:20:46.696Z,0.00
2019-02-06T04:21:46.683Z,0.00
2019-02-06T04:22:46.686Z,0.00
2019-02-06T04:23:46.665Z,0.00
2019-02-06T04:24:46.654Z,0.00
2019-02-06T04:25:46.640Z,0.00
2019-02-06T04:26:46.634Z,0.00
2019-02-06T04:27:46.629Z,0.00
2019-02-06T04:28:46.608Z,0.00
2019-02-06T04:29:46.611Z,0.00
2019-02-06T04:30:46.589Z,0.00
2019-02-06T04:31:46.576Z,0.00
2019-02-06T04:32:46.576Z,0.00
2019-02-06T04:33:46.556Z,0.00
2019-02-06T04:34:46.549Z,0.00
2019-02-06T04:35:46.536Z,0.00
2019-02-06T04:36:46.523Z,0.00
2019-02-06T04:37:46.530Z,0.00
2019-02-06T04:38:46.531Z,0.00
2019-02-06T04:39:46.492Z,0.00
2019-02-06T04:40:46.486Z,0.00
2019-02-06T04:41:46.487Z,0.00
2019-02-06T04:42:46.472Z,0.00
2019-02-06T04:43:46.450Z,0.00
2019-02-06T04:44:46.441Z,0.00
2019-02-06T04:45:46.429Z,0.00
2019-02-06T04:46:46.421Z,0.00
2019-02-06T04:47:46.432Z,0.00
2019-02-06T04:48:46.400Z,0.00
2019-02-06T04:49:46.387Z,0.00
2019-02-06T04:50:46.375Z,0.00
2019-02-06T04:51:47.241Z,0.00
2019-02-06T04:52:46.405Z,0.00
2019-02-06T04:53:46.347Z,0.00
2019-02-06T04:54:46.333Z,0.00
2019-02-06T04:55:46.322Z,0.00
2019-02-06T04:56:46.314Z,0.00
2019-02-06T04:57:46.311Z,0.00
2019-02-06T04:58:46.291Z,0.00
2019-02-06T04:59:46.277Z,0.00
2019-02-06T05:00:46.277Z,0.00
2019-02-06T05:01:46.257Z,0.00
2019-02-06T05:02:46.258Z,0.00
2019-02-06T05:03:46.235Z,0.00
2019-02-06T05:04:46.226Z,0.00
2019-02-06T05:05:46.214Z,0.00
2019-02-06T05:06:46.207Z,0.00
2019-02-06T05:07:46.203Z,0.00
2019-02-06T05:08:46.183Z,0.00
2019-02-06T05:09:46.170Z,0.00
2019-02-06T05:10:46.165Z,0.00
2019-02-06T05:11:46.165Z,0.00
2019-02-06T05:12:46.149Z,0.00
2019-02-06T05:13:46.133Z,0.00
2019-02-06T05:14:46.119Z,0.00
2019-02-06T05:15:46.106Z,0.00
2019-02-06T05:16:46.100Z,0.00
2019-02-06T05:17:46.098Z,0.00
2019-02-06T05:18:46.075Z,0.00
2019-02-06T05:19:46.063Z,0.00
2019-02-06T05:20:46.054Z,0.00
2019-02-06T05:21:46.045Z,0.00
2019-02-06T05:22:46.045Z,0.00
2019-02-06T05:23:46.023Z,0.00
2019-02-06T05:24:46.011Z,0.00
2019-02-06T05:25:46.005Z,0.00
2019-02-06T05:26:45.993Z,0.00
2019-02-06T05:27:46.007Z,0.00
2019-02-06T05:28:45.972Z,0.00
2019-02-06T05:29:45.973Z,0.00
2019-02-06T05:30:45.947Z,0.00
2019-02-06T05:31:45.936Z,0.00
2019-02-06T05:32:45.938Z,0.00
2019-02-06T05:33:45.922Z,0.00
2019-02-06T05:34:45.905Z,0.00
2019-02-06T05:35:45.901Z,0.00
2019-02-06T05:36:45.887Z,0.00
2019-02-06T05:37:45.884Z,0.00
2019-02-06T05:38:45.864Z,0.00
2019-02-06T05:39:45.854Z,0.00
2019-02-06T05:40:45.845Z,0.00
2019-02-06T05:41:45.834Z,0.00
2019-02-06T05:42:45.832Z,0.00
2019-02-06T05:43:45.809Z,0.00
2019-02-06T05:44:45.798Z,0.00
2019-02-06T05:45:45.789Z,0.00
2019-02-06T05:46:45.778Z,0.00
2019-02-06T05:47:45.780Z,0.00
2019-02-06T05:48:49.204Z,0.00
2019-02-06T05:49:45.748Z,0.00
2019-02-06T05:50:45.736Z,0.00
2019-02-06T05:51:45.735Z,0.00
2019-02-06T05:52:45.725Z,0.00
2019-02-06T05:53:45.704Z,0.00
2019-02-06T05:54:45.694Z,0.00
2019-02-06T05:55:45.683Z,0.00
2019-02-06T05:56:45.672Z,0.00
2019-02-06T05:57:45.702Z,0.00
2019-02-06T05:58:45.663Z,0.00
2019-02-06T05:59:45.641Z,0.00
2019-02-06T06:00:45.629Z,0.00
2019-02-06T06:01:45.624Z,0.00
2019-02-06T06:02:45.645Z,0.00
2019-02-06T06:03:45.597Z,0.00
2019-02-06T06:04:45.586Z,0.00
2019-02-06T06:05:45.577Z,0.00
2019-02-06T06:06:45.641Z,0.00
2019-02-06T06:07:45.838Z,4.00
2019-02-06T06:08:45.557Z,0.00
2019-02-06T06:09:45.534Z,0.00
2019-02-06T06:10:45.523Z,4.00
2019-02-06T06:11:45.524Z,0.00
2019-02-06T06:12:45.503Z,4.00
2019-02-06T06:13:45.503Z,4.00
2019-02-06T06:14:45.480Z,4.00
2019-02-06T06:15:45.471Z,4.00
2019-02-06T06:16:45.459Z,4.00
2019-02-06T06:17:45.451Z,4.00
2019-02-06T06:18:45.449Z,8.00
2019-02-06T06:19:45.430Z,8.00
2019-02-06T06:20:45.416Z,8.00
2019-02-06T06:21:45.407Z,12.00
2019-02-06T06:22:45.396Z,12.00
2019-02-06T06:23:45.415Z,12.00
2019-02-06T06:24:45.375Z,16.00
2019-02-06T06:25:45.375Z,16.00
2019-02-06T06:26:45.358Z,20.00
2019-02-06T06:27:45.346Z,24.00
2019-02-06T06:28:45.362Z,24.00
2019-02-06T06:29:45.325Z,28.00
2019-02-06T06:30:47.276Z,36.00
2019-02-06T06:31:45.307Z,36.00
2019-02-06T06:32:45.297Z,44.00
2019-02-06T06:33:45.291Z,48.00
2019-02-06T06:34:45.268Z,52.00
2019-02-06T06:35:45.258Z,60.00
2019-02-06T06:36:45.248Z,64.00
2019-02-06T06:37:57.131Z,68.00
2019-02-06T06:38:46.236Z,76.00
2019-02-06T06:39:45.216Z,84.00
2019-02-06T06:40:45.207Z,92.00
2019-02-06T06:41:45.206Z,100.00
2019-02-06T06:42:45.190Z,108.00
2019-02-06T06:43:45.185Z,120.00
2019-02-06T06:44:45.160Z,128.00
2019-02-06T06:45:45.150Z,136.00
2019-02-06T06:46:45.161Z,148.00
2019-02-06T06:47:45.128Z,160.00
2019-02-06T06:48:45.138Z,168.00
2019-02-06T06:49:45.110Z,184.00
2019-02-06T06:50:45.096Z,200.00
2019-02-06T06:51:45.086Z,216.00
2019-02-06T06:52:45.076Z,228.00
2019-02-06T06:53:45.076Z,244.00
2019-02-06T06:54:45.054Z,260.00
2019-02-06T06:55:45.044Z,276.00
2019-02-06T06:56:45.032Z,292.00
2019-02-06T06:57:45.025Z,312.00
2019-02-06T06:58:45.027Z,332.00
2019-02-06T06:59:45.003Z,356.00
2019-02-06T07:00:44.992Z,376.00
2019-02-06T07:01:44.981Z,400.00
2019-02-06T07:02:44.971Z,420.00
2019-02-06T07:03:44.972Z,452.00
2019-02-06T07:04:44.949Z,472.00
2019-02-06T07:05:44.955Z,492.00
2019-02-06T07:06:46.506Z,516.00
2019-02-06T07:07:44.916Z,552.00
2019-02-06T07:08:44.919Z,588.00
2019-02-06T07:09:44.897Z,628.00
2019-02-06T07:10:44.891Z,664.00
2019-02-06T07:11:44.875Z,696.00
2019-02-06T07:12:44.865Z,724.00
2019-02-06T07:13:44.939Z,760.00
2019-02-06T07:14:44.842Z,812.00
2019-02-06T07:15:44.830Z,848.00
2019-02-06T07:16:44.820Z,888.00
2019-02-06T07:17:44.844Z,928.00
2019-02-06T07:18:44.811Z,964.00
2019-02-06T07:19:44.790Z,1024.00
2019-02-06T07:20:44.779Z,1100.00
2019-02-06T07:21:44.767Z,1168.00
2019-02-06T07:22:44.766Z,1224.00
2019-02-06T07:23:44.764Z,1292.00
2019-02-06T07:24:44.733Z,1348.00
2019-02-06T07:25:44.726Z,1424.00
2019-02-06T07:26:44.718Z,1516.00
2019-02-06T07:27:44.704Z,1576.00
2019-02-06T07:28:44.705Z,1612.00
2019-02-06T07:29:44.685Z,1620.00
2019-02-06T07:30:44.686Z,1552.00
2019-02-06T07:31:44.665Z,1284.00
2019-02-06T07:32:44.650Z,1148.00
2019-02-06T07:33:44.652Z,1168.00
2019-02-06T07:34:44.634Z,1204.00
2019-02-06T07:35:44.618Z,1248.00
2019-02-06T07:36:44.611Z,1280.00
2019-02-06T07:37:44.597Z,1296.00
2019-02-06T07:38:44.611Z,1312.00
2019-02-06T07:39:44.579Z,1300.00
2019-02-06T07:40:44.566Z,1284.00
2019-02-06T07:41:44.554Z,1280.00
2019-02-06T07:42:44.545Z,1292.00
2019-02-06T07:43:44.551Z,1312.00
2019-02-06T07:44:44.524Z,1336.00
2019-02-06T07:45:44.516Z,1380.00
2019-02-06T07:46:44.501Z,1452.00
2019-02-06T07:47:44.490Z,1596.00
2019-02-06T07:48:44.512Z,1768.00
2019-02-06T07:49:44.472Z,1764.00
2019-02-06T07:50:44.464Z,1996.00
2019-02-06T07:51:44.482Z,2024.00
2019-02-06T07:52:44.436Z,1988.00
2019-02-06T07:53:44.425Z,2248.00
2019-02-06T07:54:44.434Z,3060.00
2019-02-06T07:55:44.406Z,2344.00
2019-02-06T07:56:44.400Z,2396.00
2019-02-06T07:57:44.385Z,2400.00
2019-02-06T07:58:44.372Z,2784.00
2019-02-06T07:59:44.378Z,3896.00
2019-02-06T08:00:44.351Z,3508.00
2019-02-06T08:01:44.353Z,4716.00
2019-02-06T08:02:44.333Z,4912.00
2019-02-06T08:03:44.322Z,5056.00
2019-02-06T08:04:44.325Z,5204.00
2019-02-06T08:05:44.300Z,4976.00
2019-02-06T08:06:44.288Z,4792.00
2019-02-06T08:07:44.281Z,4828.00
2019-02-06T08:08:44.267Z,4928.00
2019-02-06T08:09:44.279Z,5064.00
2019-02-06T08:10:44.261Z,5088.00
2019-02-06T08:11:44.277Z,5080.00
2019-02-06T08:12:44.266Z,5220.00
2019-02-06T08:13:44.216Z,3724.00
2019-02-06T08:14:44.234Z,4068.00
2019-02-06T08:15:44.206Z,4048.00
2019-02-06T08:16:44.186Z,3388.00
2019-02-06T08:17:44.173Z,3128.00
2019-02-06T08:18:44.163Z,3328.00
2019-02-06T08:19:44.170Z,3048.00
2019-02-06T08:20:44.139Z,3120.00
2019-02-06T08:21:44.130Z,3052.00
2019-02-06T08:22:44.123Z,3188.00
2019-02-06T08:23:44.113Z,3276.00
2019-02-06T08:24:44.111Z,3484.00
2019-02-06T08:25:44.087Z,4016.00
2019-02-06T08:26:44.082Z,4220.00
2019-02-06T08:27:44.071Z,4636.00
2019-02-06T08:28:44.056Z,5036.00
2019-02-06T08:29:44.074Z,5156.00
2019-02-06T08:30:44.040Z,5316.00
2019-02-06T08:31:44.026Z,5344.00
2019-02-06T08:32:44.019Z,5512.00
2019-02-06T08:33:44.007Z,6028.00
2019-02-06T08:34:44.014Z,5928.00
2019-02-06T08:35:43.981Z,6020.00
2019-02-06T08:36:43.972Z,6068.00
2019-02-06T08:37:43.960Z,5992.00
2019-02-06T08:38:47.738Z,5992.00
2019-02-06T08:39:44.948Z,6008.00
2019-02-06T08:40:43.928Z,6148.00
2019-02-06T08:41:43.917Z,6296.00
2019-02-06T08:42:43.912Z,5860.00
2019-02-06T08:43:43.899Z,5676.00
2019-02-06T08:44:43.907Z,5992.00
2019-02-06T08:45:43.876Z,6408.00
2019-02-06T08:46:43.865Z,5788.00
2019-02-06T08:47:43.852Z,6852.00
2019-02-06T08:48:43.844Z,6620.00
2019-02-06T08:49:43.845Z,6028.00
2019-02-06T08:50:43.821Z,5600.00
2019-02-06T08:51:43.816Z,5540.00
2019-02-06T08:52:43.802Z,7252.00
2019-02-06T08:53:43.796Z,8132.00
2019-02-06T08:54:43.794Z,7856.00
2019-02-06T08:55:43.769Z,7280.00
2019-02-06T08:56:43.766Z,7452.00
2019-02-06T08:57:43.748Z,7852.00
2019-02-06T08:58:43.736Z,7964.00
2019-02-06T08:59:43.734Z,7996.00
2019-02-06T09:00:43.717Z,8412.00
2019-02-06T09:01:43.709Z,7840.00
2019-02-06T09:02:43.710Z,7744.00
2019-02-06T09:03:43.682Z,8604.00
2019-02-06T09:04:55.254Z,7980.00
2019-02-06T09:05:44.670Z,8020.00
2019-02-06T09:06:43.649Z,8120.00
2019-02-06T09:07:43.637Z,8048.00
2019-02-06T09:08:43.627Z,8184.00
2019-02-06T09:09:43.714Z,7492.00
2019-02-06T09:10:43.621Z,7164.00
2019-02-06T09:11:43.597Z,8124.00
2019-02-06T09:12:43.587Z,8800.00
2019-02-06T09:13:43.577Z,8680.00
2019-02-06T09:14:43.564Z,10396.00
2019-02-06T09:15:43.586Z,11560.00
2019-02-06T09:16:43.541Z,16864.00
2019-02-06T09:17:43.530Z,19264.00
2019-02-06T09:18:43.522Z,21376.00
2019-02-06T09:19:43.516Z,15616.00
2019-02-06T09:20:43.937Z,12332.00
2019-02-06T09:21:43.499Z,10620.00
2019-02-06T09:22:43.479Z,10888.00
2019-02-06T09:23:43.465Z,14208.00
2019-02-06T09:24:43.455Z,16864.00
2019-02-06T09:25:43.474Z,12876.00
2019-02-06T09:26:43.443Z,11348.00
2019-02-06T09:27:43.434Z,11268.00
2019-02-06T09:28:43.413Z,11012.00
2019-02-06T09:29:43.404Z,12528.00
2019-02-06T09:30:43.411Z,15136.00
2019-02-06T09:31:43.384Z,12268.00
2019-02-06T09:32:43.370Z,13136.00
2019-02-06T09:33:43.359Z,26368.00
2019-02-06T09:34:43.352Z,31520.00
2019-02-06T09:35:43.348Z,30304.00
2019-02-06T09:36:43.330Z,29568.00
2019-02-06T09:37:43.318Z,36480.00
2019-02-06T09:38:43.356Z,38752.00
2019-02-06T09:39:43.293Z,37280.00
2019-02-06T09:40:43.299Z,42592.00
2019-02-06T09:41:43.281Z,52192.00
2019-02-06T09:42:43.261Z,58784.00
2019-02-06T09:43:43.249Z,63456.00
2019-02-06T09:44:43.239Z,63456.00
2019-02-06T09:45:43.242Z,54336.00
2019-02-06T09:46:43.219Z,55072.00
2019-02-06T09:47:43.206Z,49568.00
2019-02-06T09:48:43.196Z,37728.00
2019-02-06T09:49:43.185Z,30208.00
2019-02-06T09:50:43.202Z,25344.00
2019-02-06T09:51:43.164Z,23456.00
2019-02-06T09:52:43.156Z,22368.00
2019-02-06T09:53:43.143Z,18144.00
2019-02-06T09:54:43.135Z,15776.00
2019-02-06T09:55:43.139Z,12612.00
2019-02-06T09:56:43.112Z,11328.00
2019-02-06T09:57:43.101Z,10692.00
2019-02-06T09:58:43.091Z,10368.00
2019-02-06T09:59:43.087Z,10252.00
2019-02-06T10:00:43.078Z,9248.00
2019-02-06T10:01:43.057Z,8960.00
2019-02-06T10:02:43.049Z,8664.00
2019-02-06T10:03:43.035Z,8512.00
2019-02-06T10:04:43.023Z,7564.00
2019-02-06T10:05:43.047Z,6604.00
2019-02-06T10:06:43.002Z,6452.00
2019-02-06T10:07:42.990Z,6464.00
2019-02-06T10:08:42.982Z,6500.00
2019-02-06T10:09:42.973Z,6484.00
2019-02-06T10:10:42.959Z,6468.00
2019-02-06T10:11:42.962Z,6496.00
2019-02-06T10:12:42.937Z,6712.00
2019-02-06T10:13:42.927Z,6912.00
2019-02-06T10:14:42.915Z,7248.00
2019-02-06T10:15:42.911Z,7728.00
2019-02-06T10:16:42.904Z,8348.00
2019-02-06T10:17:42.883Z,8444.00
2019-02-06T10:18:42.873Z,8160.00
2019-02-06T10:19:42.862Z,8296.00
2019-02-06T10:20:42.851Z,8200.00
2019-02-06T10:21:42.853Z,8096.00
2019-02-06T10:22:43.765Z,7924.00
2019-02-06T10:23:42.841Z,8140.00
2019-02-06T10:24:42.807Z,9256.00
2019-02-06T10:25:42.797Z,9204.00
2019-02-06T10:26:42.799Z,8752.00
2019-02-06T10:27:42.776Z,8180.00
2019-02-06T10:28:42.765Z,8276.00
2019-02-06T10:29:42.754Z,8388.00
2019-02-06T10:30:42.745Z,8248.00
2019-02-06T10:31:42.746Z,7908.00
2019-02-06T10:32:42.727Z,7324.00
2019-02-06T10:33:42.710Z,7016.00
2019-02-06T10:34:42.701Z,7788.00
2019-02-06T10:35:42.689Z,9520.00
2019-02-06T10:36:42.695Z,11120.00
2019-02-06T10:37:42.668Z,11368.00
2019-02-06T10:38:42.666Z,11080.00
2019-02-06T10:39:42.647Z,11592.00
2019-02-06T10:40:42.636Z,11392.00
2019-02-06T10:41:42.640Z,12152.00
2019-02-06T10:42:42.616Z,12720.00
2019-02-06T10:43:42.603Z,11324.00
2019-02-06T10:44:42.593Z,11536.00
2019-02-06T10:45:42.606Z,11916.00
2019-02-06T10:46:43.284Z,13944.00
2019-02-06T10:47:42.560Z,11324.00
2019-02-06T10:48:43.898Z,12560.00
2019-02-06T10:49:42.545Z,12768.00
2019-02-06T10:50:42.532Z,11968.00
2019-02-06T10:51:42.529Z,11248.00
2019-02-06T10:52:42.513Z,11604.00
2019-02-06T10:53:42.496Z,15360.00
2019-02-06T10:54:42.486Z,12092.00
2019-02-06T10:55:42.482Z,11644.00
2019-02-06T10:56:42.474Z,12504.00
2019-02-06T10:57:42.454Z,11428.00
2019-02-06T10:58:42.564Z,14924.00
2019-02-06T10:59:42.438Z,12092.00
2019-02-06T11:00:42.424Z,16832.00
2019-02-06T11:01:42.422Z,13756.00
2019-02-06T11:02:42.398Z,13820.00
2019-02-06T11:03:42.394Z,12680.00
2019-02-06T11:04:42.378Z,14764.00
2019-02-06T11:05:42.367Z,13044.00
2019-02-06T11:06:42.375Z,13052.00
2019-02-06T11:07:42.358Z,11584.00
2019-02-06T11:08:42.334Z,10736.00
2019-02-06T11:09:46.055Z,13412.00
2019-02-06T11:10:42.316Z,11292.00
2019-02-06T11:11:42.313Z,10180.00
2019-02-06T11:12:42.305Z,11784.00
2019-02-06T11:13:42.280Z,9296.00
2019-02-06T11:14:42.271Z,7964.00
2019-02-06T11:15:42.260Z,8952.00
2019-02-06T11:16:42.260Z,9756.00
2019-02-06T11:17:42.242Z,9036.00
2019-02-06T11:18:44.425Z,7708.00
2019-02-06T11:19:43.166Z,7792.00
2019-02-06T11:20:42.238Z,7408.00
2019-02-06T11:21:42.227Z,6708.00
2019-02-06T11:22:42.184Z,6540.00
2019-02-06T11:23:42.176Z,6472.00
2019-02-06T11:24:42.161Z,6448.00
2019-02-06T11:25:42.154Z,6928.00
2019-02-06T11:26:42.140Z,7032.00
2019-02-06T11:27:42.148Z,7124.00
2019-02-06T11:28:42.121Z,7136.00
2019-02-06T11:29:42.780Z,7064.00
2019-02-06T11:30:42.103Z,7816.00
2019-02-06T11:31:42.091Z,8600.00
2019-02-06T11:32:42.086Z,8756.00
2019-02-06T11:33:42.063Z,8156.00
2019-02-06T11:34:42.053Z,8068.00
2019-02-06T11:35:42.043Z,7788.00
2019-02-06T11:36:42.032Z,7616.00
2019-02-06T11:37:42.034Z,7548.00
2019-02-06T11:38:42.011Z,7628.00
2019-02-06T11:39:42.013Z,7752.00
2019-02-06T11:40:41.991Z,7956.00
2019-02-06T11:41:41.978Z,8208.00
2019-02-06T11:42:41.977Z,8448.00
2019-02-06T11:43:41.956Z,8580.00
2019-02-06T11:44:41.946Z,8768.00
2019-02-06T11:45:41.935Z,9484.00
2019-02-06T11:46:41.925Z,9884.00
2019-02-06T11:47:41.928Z,9428.00
2019-02-06T11:48:43.444Z,9332.00
2019-02-06T11:49:41.892Z,9356.00
2019-02-06T11:50:41.888Z,9628.00
2019-02-06T11:51:41.878Z,9196.00
2019-02-06T11:52:41.873Z,8624.00
2019-02-06T11:53:41.848Z,7948.00
2019-02-06T11:54:41.838Z,7916.00
2019-02-06T11:55:41.828Z,7276.00
2019-02-06T11:56:41.817Z,7252.00
2019-02-06T11:57:41.819Z,7464.00
2019-02-06T11:58:41.795Z,7232.00
2019-02-06T11:59:41.796Z,7640.00
2019-02-06T12:00:41.786Z,7736.00
2019-02-06T12:01:41.764Z,7828.00
2019-02-06T12:02:41.763Z,7932.00
2019-02-06T12:03:41.740Z,7652.00
2019-02-06T12:04:41.731Z,7532.00
2019-02-06T12:05:41.719Z,7052.00
2019-02-06T12:06:41.709Z,7236.00
2019-02-06T12:07:41.711Z,7112.00
2019-02-06T12:08:41.688Z,7416.00
2019-02-06T12:09:41.680Z,7492.00
2019-02-06T12:10:41.667Z,7504.00
2019-02-06T12:11:41.657Z,7736.00
2019-02-06T12:12:41.654Z,7984.00
2019-02-06T12:13:41.635Z,7928.00
2019-02-06T12:14:41.622Z,7872.00
2019-02-06T12:15:41.616Z,7304.00
2019-02-06T12:16:41.602Z,7320.00
2019-02-06T12:17:41.605Z,7384.00
2019-02-06T12:18:41.579Z,7516.00
2019-02-06T12:19:41.569Z,7364.00
2019-02-06T12:20:41.560Z,7432.00
2019-02-06T12:21:41.551Z,7320.00
2019-02-06T12:22:41.549Z,7184.00
2019-02-06T12:23:41.526Z,7328.00
2019-02-06T12:24:41.515Z,7752.00
2019-02-06T12:25:41.508Z,7768.00
2019-02-06T12:26:41.497Z,7492.00
2019-02-06T12:27:41.505Z,7368.00
2019-02-06T12:28:41.474Z,7200.00
2019-02-06T12:29:41.461Z,6936.00
2019-02-06T12:30:41.454Z,6288.00
2019-02-06T12:31:41.441Z,6132.00
2019-02-06T12:32:52.013Z,6044.00
2019-02-06T12:33:42.422Z,5896.00
2019-02-06T12:34:41.409Z,5768.00
2019-02-06T12:35:41.402Z,5640.00
2019-02-06T12:36:41.388Z,5648.00
2019-02-06T12:37:41.379Z,5728.00
2019-02-06T12:38:52.784Z,5764.00
2019-02-06T12:39:42.354Z,5768.00
2019-02-06T12:40:41.347Z,5872.00